Time;durP1;ratioP1;P1;durP2;ratioP2;P2;SDS_P1;SDS_P2;PMS_P1;PMS_P2;Temp;Humidity;BMP_temperature;BMP_pressure;BME280_temperature;BME280_humidity;BME280_pressure;Samples;Min_cycle;Max_cycle;Signal;HPM_P1;HPM_P2
2022/10/08 00:00:47;;;;;;;6.07;4.33;;;14.60;99.90;;;;;;5054704;28;20474;-77
2022/10/08 00:03:14;;;;;;;4.40;4.00;;;14.60;99.90;;;;;;5049694;28;20476;-77
2022/10/08 00:05:47;;;;;;;9.07;5.20;;;14.50;99.90;;;;;;5047040;28;20503;-77
2022/10/08 00:08:14;;;;;;;5.73;4.80;;;14.50;99.90;;;;;;5057810;28;20989;-79
2022/10/08 00:10:41;;;;;;;5.10;4.43;;;14.50;99.90;;;;;;5039966;28;20932;-77
2022/10/08 00:13:09;;;;;;;4.97;4.03;;;14.50;99.90;;;;;;5052506;28;20517;-78
2022/10/08 00:18:18;;;;;;;6.40;4.90;;;14.50;99.90;;;;;;5025491;28;20544;-76
2022/10/08 00:20:47;;;;;;;6.03;4.40;;;14.50;99.90;;;;;;5042483;28;20478;-76
2022/10/08 00:23:15;;;;;;;3.90;3.50;;;14.50;99.90;;;;;;5028365;28;20472;-76
2022/10/08 00:26:24;;;;;;;5.20;4.40;;;14.50;99.90;;;;;;5033854;28;20505;-77
2022/10/08 00:28:53;;;;;;;7.88;5.78;;;14.40;99.90;;;;;;5019878;28;20468;-77
2022/10/08 00:31:22;;;;;;;5.53;4.82;;;14.40;99.90;;;;;;5026919;28;20245;-77
2022/10/08 00:33:50;;;;;;;6.60;4.80;;;14.40;99.90;;;;;;5028296;28;20229;-79
2022/10/08 00:36:19;;;;;;;6.15;4.88;;;14.40;99.90;;;;;;5031300;28;20469;-77
2022/10/08 00:38:46;;;;;;;10.70;5.45;;;14.40;99.90;;;;;;5018218;28;20234;-79
2022/10/08 00:41:18;;;;;;;4.93;4.63;;;14.40;99.90;;;;;;5023891;28;20282;-77
2022/10/08 00:43:48;;;;;;;6.90;5.05;;;14.40;99.90;;;;;;5028323;28;20283;-77
2022/10/08 00:46:53;;;;;;;7.45;5.13;;;14.40;99.90;;;;;;5034820;28;20217;-77
2022/10/08 00:49:24;;;;;;;5.10;4.60;;;14.40;99.90;;;;;;5037445;28;20225;-76
2022/10/08 00:51:56;;;;;;;4.95;4.55;;;14.30;99.90;;;;;;5027721;28;20669;-77
2022/10/08 00:54:24;;;;;;;5.03;4.20;;;14.30;99.90;;;;;;5032387;28;20226;-77
2022/10/08 00:56:53;;;;;;;5.10;4.53;;;14.30;99.90;;;;;;5025197;28;20476;-79
2022/10/08 00:59:21;;;;;;;5.50;4.63;;;14.20;99.90;;;;;;5024080;28;20766;-79
2022/10/08 01:01:48;;;;;;;9.82;5.57;;;14.20;99.90;;;;;;5021394;28;20265;-77
2022/10/08 01:04:16;;;;;;;10.77;5.32;;;14.20;99.90;;;;;;5021585;28;20221;-78
2022/10/08 01:06:50;;;;;;;4.65;3.90;;;14.30;99.90;;;;;;5017780;28;20213;-79
2022/10/08 01:09:27;;;;;;;6.88;5.53;;;14.20;99.90;;;;;;5036788;28;20252;-77
2022/10/08 01:12:01;;;;;;;5.70;5.10;;;14.20;99.90;;;;;;5022105;28;20225;-78
2022/10/08 01:14:40;;;;;;;4.95;4.43;;;14.20;99.90;;;;;;5066029;28;20281;-77
2022/10/08 01:17:14;;;;;;;5.70;4.70;;;14.20;99.90;;;;;;5051019;28;20247;-77
2022/10/08 01:20:04;;;;;;;5.20;4.73;;;14.10;99.90;;;;;;5042135;28;20260;-77
2022/10/08 01:22:48;;;;;;;5.20;4.70;;;14.10;99.90;;;;;;5049399;28;20472;-78
2022/10/08 01:25:35;;;;;;;9.70;5.35;;;14.10;99.90;;;;;;5047842;28;20229;-77
2022/10/08 01:28:15;;;;;;;8.02;5.80;;;14.10;99.90;;;;;;5044332;28;20216;-77
2022/10/08 01:30:49;;;;;;;6.95;4.88;;;14.10;99.90;;;;;;5045498;28;20279;-77
2022/10/08 01:33:27;;;;;;;6.28;5.07;;;14.00;99.90;;;;;;5068482;28;20309;-78
2022/10/08 01:35:59;;;;;;;6.10;4.80;;;14.00;99.90;;;;;;5051358;28;20620;-80
2022/10/08 01:38:32;;;;;;;6.07;5.57;;;14.00;99.90;;;;;;5052870;28;20259;-80
2022/10/08 01:41:07;;;;;;;8.05;6.53;;;14.00;99.90;;;;;;5032318;28;20683;-81
2022/10/08 01:43:38;;;;;;;5.43;4.93;;;14.00;99.90;;;;;;5047026;28;20228;-80
2022/10/08 01:46:10;;;;;;;9.43;5.68;;;14.00;99.90;;;;;;5043061;28;20220;-79
2022/10/08 01:48:40;;;;;;;8.05;5.65;;;14.00;99.90;;;;;;5051248;28;20225;-79
2022/10/08 01:51:17;;;;;;;7.22;6.20;;;14.00;99.90;;;;;;5048587;28;20221;-79
2022/10/08 01:53:54;;;;;;;6.18;5.60;;;14.00;99.90;;;;;;5052529;28;20315;-77
2022/10/08 01:56:27;;;;;;;6.70;5.63;;;14.00;99.90;;;;;;5050477;28;20300;-77
2022/10/08 01:59:01;;;;;;;7.68;5.53;;;14.00;99.90;;;;;;5040830;28;20590;-77
2022/10/08 02:02:03;;;;;;;7.18;5.85;;;14.00;99.90;;;;;;5038997;28;20272;-77
2022/10/08 02:04:34;;;;;;;6.00;5.25;;;14.00;99.90;;;;;;5042718;28;20213;-77
2022/10/08 02:07:06;;;;;;;6.97;6.28;;;14.00;99.90;;;;;;5046414;28;20647;-79
2022/10/08 02:09:36;;;;;;;5.95;5.43;;;14.00;99.90;;;;;;5040442;28;20646;-79
2022/10/08 02:12:08;;;;;;;9.02;6.25;;;14.00;99.90;;;;;;5041355;28;20231;-79
2022/10/08 02:14:42;;;;;;;5.68;5.07;;;14.00;99.90;;;;;;5067136;28;20255;-79
2022/10/08 02:17:29;;;;;;;5.50;4.90;;;13.90;99.90;;;;;;5067779;28;20227;-79
2022/10/08 02:20:00;;;;;;;5.60;5.00;;;13.90;99.90;;;;;;5065871;28;20216;-79
2022/10/08 02:22:34;;;;;;;8.10;6.60;;;13.90;99.90;;;;;;5060550;28;20233;-79
2022/10/08 02:25:16;;;;;;;8.40;6.68;;;13.90;99.90;;;;;;5053884;28;20226;-79
2022/10/08 02:27:56;;;;;;;7.60;6.35;;;13.90;99.90;;;;;;5061322;28;20307;-79
2022/10/08 02:30:24;;;;;;;6.50;5.85;;;13.90;99.90;;;;;;5069781;28;20224;-80
2022/10/08 02:32:59;;;;;;;6.00;5.50;;;13.90;99.90;;;;;;5073057;28;20620;-79
2022/10/08 02:35:32;;;;;;;6.20;5.55;;;13.90;99.90;;;;;;5075218;28;20247;-79
2022/10/08 02:38:03;;;;;;;5.78;5.22;;;13.90;99.90;;;;;;5076142;28;20257;-78
2022/10/08 02:40:34;;;;;;;6.28;5.68;;;13.90;99.90;;;;;;5074092;28;20246;-80
2022/10/08 02:43:17;;;;;;;6.47;5.47;;;13.90;99.90;;;;;;5076764;28;20258;-77
2022/10/08 02:45:52;;;;;;;7.03;6.15;;;13.90;99.90;;;;;;5068077;28;20236;-77
2022/10/08 02:48:26;;;;;;;5.65;5.15;;;14.00;99.90;;;;;;5069253;28;20220;-77
2022/10/08 02:50:56;;;;;;;7.20;6.50;;;14.00;99.90;;;;;;5072226;28;20303;-77
2022/10/08 02:53:26;;;;;;;7.57;5.50;;;14.00;99.90;;;;;;5076405;28;20235;-77
2022/10/08 02:56:04;;;;;;;5.82;5.15;;;14.10;99.90;;;;;;5078532;28;20239;-77
2022/10/08 02:58:31;;;;;;;6.15;5.60;;;14.10;99.90;;;;;;5084491;28;20665;-77
2022/10/08 03:01:08;;;;;;;5.93;5.43;;;14.10;99.90;;;;;;5087878;28;20219;-77
2022/10/08 03:03:40;;;;;;;5.50;5.00;;;14.20;99.90;;;;;;5087514;28;20203;-77
2022/10/08 03:06:09;;;;;;;6.20;4.80;;;14.20;99.90;;;;;;5086815;28;20224;-77
2022/10/08 03:08:43;;;;;;;6.45;5.30;;;14.20;99.90;;;;;;5075962;28;20357;-78
2022/10/08 03:11:11;;;;;;;7.63;5.20;;;14.20;99.90;;;;;;5083634;28;20251;-79
2022/10/08 03:13:40;;;;;;;8.15;5.82;;;14.20;99.90;;;;;;5092362;28;20220;-79
2022/10/08 03:16:12;;;;;;;6.75;4.85;;;14.20;99.90;;;;;;5093055;28;20207;-79
2022/10/08 03:18:41;;;;;;;6.60;5.53;;;14.20;99.90;;;;;;5094357;28;20224;-79
2022/10/08 03:21:11;;;;;;;6.65;5.97;;;14.20;99.90;;;;;;5093173;28;20216;-79
2022/10/08 03:23:40;;;;;;;8.73;5.88;;;14.20;99.90;;;;;;5090799;28;20231;-79
2022/10/08 03:26:07;;;;;;;5.82;5.22;;;14.20;99.90;;;;;;5086127;28;20271;-79
2022/10/08 03:28:39;;;;;;;5.72;5.22;;;14.20;99.90;;;;;;5069490;28;20221;-77
2022/10/08 03:31:08;;;;;;;7.20;5.25;;;14.20;99.90;;;;;;5070765;28;20220;-77
2022/10/08 03:33:35;;;;;;;6.07;5.57;;;14.20;99.90;;;;;;5082284;28;20221;-77
2022/10/08 03:36:02;;;;;;;6.05;5.55;;;14.20;99.90;;;;;;5068713;28;20240;-77
2022/10/08 03:38:29;;;;;;;8.68;5.43;;;14.20;99.90;;;;;;5074481;28;20228;-77
2022/10/08 03:40:58;;;;;;;6.47;5.88;;;14.10;99.90;;;;;;5070147;28;20251;-77
2022/10/08 03:43:31;;;;;;;8.95;6.03;;;14.10;99.90;;;;;;5067058;28;20312;-77
2022/10/08 03:45:58;;;;;;;6.88;5.30;;;14.10;99.90;;;;;;5063948;28;20213;-77
2022/10/08 03:48:26;;;;;;;7.78;5.78;;;14.10;99.90;;;;;;5070082;28;20303;-77
2022/10/08 03:50:56;;;;;;;6.55;5.95;;;14.10;99.90;;;;;;5070745;28;20243;-77
2022/10/08 03:53:24;;;;;;;7.10;5.35;;;14.20;99.90;;;;;;5068326;28;20220;-77
2022/10/08 03:55:51;;;;;;;6.72;4.68;;;14.10;99.90;;;;;;5071692;28;20314;-77
2022/10/08 03:58:18;;;;;;;8.88;5.07;;;14.20;99.90;;;;;;5066803;28;20251;-78
2022/10/08 04:00:56;;;;;;;5.88;4.22;;;14.20;99.90;;;;;;5074776;28;20232;-77
2022/10/08 04:03:38;;;;;;;9.90;4.90;;;14.20;99.90;;;;;;5063934;28;20238;-77
2022/10/08 04:06:06;;;;;;;6.13;5.55;;;14.20;99.90;;;;;;5064280;28;20281;-77
2022/10/08 04:08:34;;;;;;;6.30;4.90;;;14.20;99.90;;;;;;5054727;28;20243;-77
2022/10/08 04:11:03;;;;;;;5.38;4.93;;;14.20;99.90;;;;;;5042684;28;20225;-77
2022/10/08 04:13:30;;;;;;;5.72;5.03;;;14.20;99.90;;;;;;5064030;28;20285;-77
2022/10/08 04:16:03;;;;;;;6.38;5.28;;;14.20;99.90;;;;;;5062606;28;20319;-77
2022/10/08 04:18:30;;;;;;;8.02;4.60;;;14.20;99.90;;;;;;5059970;28;20224;-77
2022/10/08 04:21:17;;;;;;;6.80;5.28;;;14.20;99.90;;;;;;5074457;28;20238;-77
2022/10/08 04:23:44;;;;;;;5.32;4.85;;;14.30;99.90;;;;;;5063982;28;20303;-77
2022/10/08 04:26:14;;;;;;;6.15;5.63;;;14.30;99.90;;;;;;5074490;28;20220;-77
2022/10/08 04:28:43;;;;;;;9.20;6.82;;;14.20;99.90;;;;;;5073901;28;20227;-78
2022/10/08 04:31:12;;;;;;;9.27;8.45;;;14.20;99.90;;;;;;5075091;28;20277;-79
2022/10/08 04:33:40;;;;;;;24.75;17.95;;;14.20;99.90;;;;;;5074482;28;20301;-82
2022/10/08 04:36:10;;;;;;;7.30;5.95;;;14.20;99.90;;;;;;5073671;28;20224;-77
2022/10/08 04:38:37;;;;;;;8.27;5.10;;;14.20;99.90;;;;;;5069713;28;20228;-77
2022/10/08 04:41:06;;;;;;;8.65;5.00;;;14.20;99.90;;;;;;5073436;28;20234;-77
2022/10/08 04:43:34;;;;;;;7.55;5.10;;;14.20;99.90;;;;;;5064063;28;20613;-77
2022/10/08 04:46:01;;;;;;;4.85;4.45;;;14.20;99.90;;;;;;5073750;28;20677;-77
2022/10/08 04:48:28;;;;;;;5.03;4.53;;;14.20;99.90;;;;;;5073246;28;20223;-77
2022/10/08 04:50:59;;;;;;;5.28;4.75;;;14.20;99.90;;;;;;5067982;28;20224;-77
2022/10/08 04:53:30;;;;;;;6.60;5.60;;;14.20;99.90;;;;;;5062969;28;20220;-77
2022/10/08 04:56:07;;;;;;;5.53;4.90;;;14.20;99.90;;;;;;5063544;28;20286;-77
2022/10/08 04:58:38;;;;;;;5.05;4.55;;;14.20;99.90;;;;;;5052651;28;20554;-77
2022/10/08 05:01:06;;;;;;;4.25;3.95;;;14.20;99.90;;;;;;5053487;28;20224;-76
2022/10/08 05:03:36;;;;;;;5.43;4.80;;;14.20;99.90;;;;;;5043854;28;20243;-76
2022/10/08 05:06:03;;;;;;;5.00;4.50;;;14.20;99.90;;;;;;5053916;28;20217;-76
2022/10/08 05:08:32;;;;;;;5.68;4.30;;;14.20;99.90;;;;;;5072012;28;20469;-77
2022/10/08 05:10:59;;;;;;;5.13;4.32;;;14.20;99.90;;;;;;5073280;28;20247;-77
2022/10/08 05:13:28;;;;;;;5.97;4.73;;;14.10;99.90;;;;;;5072987;28;20260;-76
2022/10/08 05:15:54;;;;;;;6.90;4.18;;;14.10;99.90;;;;;;5072466;28;20542;-76
2022/10/08 05:18:42;;;;;;;5.53;4.85;;;14.10;99.90;;;;;;5073608;28;20349;-76
2022/10/08 05:21:11;;;;;;;6.47;4.95;;;14.10;99.90;;;;;;5073523;28;20211;-76
2022/10/08 05:23:42;;;;;;;5.00;4.35;;;14.10;99.90;;;;;;5073457;28;20573;-76
2022/10/08 05:26:14;;;;;;;4.72;4.32;;;14.10;99.90;;;;;;5073691;28;20562;-77
2022/10/08 05:28:41;;;;;;;6.05;4.65;;;14.10;99.90;;;;;;5073027;28;20249;-76
2022/10/08 05:31:08;;;;;;;5.13;4.40;;;14.10;99.90;;;;;;5071673;28;20247;-77
2022/10/08 05:33:38;;;;;;;9.80;5.63;;;14.10;99.90;;;;;;5072403;28;20629;-76
2022/10/08 05:36:07;;;;;;;4.85;4.38;;;14.10;99.90;;;;;;5073175;28;20222;-76
2022/10/08 05:38:34;;;;;;;8.98;4.80;;;14.20;99.90;;;;;;5073758;28;20239;-76
2022/10/08 05:41:11;;;;;;;7.30;5.10;;;14.20;99.90;;;;;;5073526;28;20215;-76
2022/10/08 05:43:38;;;;;;;10.25;4.90;;;14.20;99.90;;;;;;5072682;28;20493;-76
2022/10/08 05:46:05;;;;;;;6.03;4.40;;;14.20;99.90;;;;;;5073032;28;20247;-78
2022/10/08 05:48:32;;;;;;;5.25;4.05;;;14.20;99.90;;;;;;5061847;28;20266;-77
2022/10/08 05:51:05;;;;;;;4.47;4.07;;;14.20;99.90;;;;;;5073425;28;20227;-77
2022/10/08 05:53:34;;;;;;;4.70;4.32;;;14.20;99.90;;;;;;5072982;28;20244;-79
2022/10/08 05:56:01;;;;;;;7.00;4.75;;;14.20;99.90;;;;;;5073945;28;20223;-78
2022/10/08 05:58:30;;;;;;;6.53;4.30;;;14.20;99.90;;;;;;5072899;28;20223;-78
2022/10/08 06:01:03;;;;;;;5.30;3.60;;;14.20;99.90;;;;;;5073063;28;20303;-78
2022/10/08 06:03:30;;;;;;;6.22;4.38;;;14.30;99.90;;;;;;5072005;28;20236;-79
2022/10/08 06:06:04;;;;;;;4.25;3.88;;;14.20;99.90;;;;;;5074805;28;20236;-78
2022/10/08 06:08:32;;;;;;;5.07;4.18;;;14.30;99.90;;;;;;5056719;28;20221;-78
2022/10/08 06:11:00;;;;;;;4.78;4.25;;;14.30;99.90;;;;;;5056437;28;20255;-79
2022/10/08 06:13:27;;;;;;;4.72;4.25;;;14.30;99.90;;;;;;5057268;28;20690;-78
2022/10/08 06:19:35;;;;;;;5.30;4.60;;;14.30;99.90;;;;;;5064480;28;20219;-78
2022/10/08 06:22:02;;;;;;;5.15;4.60;;;14.30;99.90;;;;;;5075616;28;20228;-78
2022/10/08 06:24:33;;;;;;;5.60;5.10;;;14.30;99.90;;;;;;5076226;28;20223;-76
2022/10/08 06:27:00;;;;;;;4.82;4.25;;;14.30;99.90;;;;;;5076702;28;20219;-79
2022/10/08 06:29:27;;;;;;;7.20;6.30;;;14.30;99.90;;;;;;5067061;28;20243;-76
2022/10/08 06:32:00;;;;;;;7.25;5.35;;;14.30;99.90;;;;;;5076701;28;20224;-76
2022/10/08 06:34:27;;;;;;;7.15;6.22;;;14.30;99.90;;;;;;5075945;28;20674;-76
2022/10/08 06:36:54;;;;;;;6.05;5.28;;;14.40;99.90;;;;;;5076960;28;20709;-76
2022/10/08 06:39:21;;;;;;;5.85;5.40;;;14.40;99.90;;;;;;5075799;28;20311;-76
2022/10/08 06:41:48;;;;;;;4.95;4.55;;;14.40;99.90;;;;;;5075354;28;20698;-75
2022/10/08 06:44:17;;;;;;;6.30;4.80;;;14.40;99.90;;;;;;5076435;28;20299;-76
2022/10/08 06:46:45;;;;;;;6.72;4.80;;;14.40;99.90;;;;;;5075551;28;20278;-75
2022/10/08 06:49:13;;;;;;;7.25;3.90;;;14.40;99.90;;;;;;5076285;28;20228;-76
2022/10/08 06:51:43;;;;;;;5.60;5.18;;;14.40;99.90;;;;;;5075626;28;23400;-76
2022/10/08 06:54:10;;;;;;;11.43;9.03;;;14.40;99.90;;;;;;5076155;28;20229;-76
2022/10/08 06:56:38;;;;;;;10.17;8.87;;;14.40;99.90;;;;;;5075137;28;20463;-78
2022/10/08 06:59:10;;;;;;;8.17;7.37;;;14.50;99.90;;;;;;5077837;28;20490;-78
2022/10/08 07:01:37;;;;;;;21.98;14.48;;;14.50;99.90;;;;;;5077098;28;20982;-77
2022/10/08 07:04:05;;;;;;;11.60;10.00;;;14.50;99.90;;;;;;5076540;28;20220;-77
2022/10/08 07:06:34;;;;;;;10.30;6.87;;;14.50;99.90;;;;;;5074542;28;20463;-76
2022/10/08 07:09:03;;;;;;;5.63;5.03;;;14.50;99.90;;;;;;5066666;28;20484;-77
2022/10/08 07:11:32;;;;;;;6.70;5.33;;;14.50;99.90;;;;;;5074873;28;20293;-76
2022/10/08 07:13:59;;;;;;;15.43;9.77;;;14.60;99.90;;;;;;5075655;28;20462;-76
2022/10/08 07:16:27;;;;;;;17.00;9.27;;;14.60;99.90;;;;;;5074577;28;20277;-76
2022/10/08 07:19:00;;;;;;;20.05;14.00;;;14.60;99.90;;;;;;5073252;28;20458;-76
2022/10/08 07:21:29;;;;;;;14.15;10.52;;;14.60;99.90;;;;;;5072524;28;20281;-76
2022/10/08 07:23:59;;;;;;;12.53;9.03;;;14.60;99.90;;;;;;5066557;28;20234;-76
2022/10/08 07:26:28;;;;;;;14.98;7.97;;;14.60;99.90;;;;;;5075486;28;20463;-76
2022/10/08 07:28:59;;;;;;;9.50;6.57;;;14.70;99.90;;;;;;5074953;28;20319;-76
2022/10/08 07:31:28;;;;;;;11.52;7.13;;;14.70;99.90;;;;;;5067805;28;20543;-76
2022/10/08 07:33:56;;;;;;;8.87;6.40;;;14.70;99.90;;;;;;5063218;28;20221;-76
2022/10/08 07:36:25;;;;;;;8.60;5.93;;;14.80;99.90;;;;;;5068747;28;20520;-76
2022/10/08 07:38:54;;;;;;;14.65;12.32;;;14.80;99.90;;;;;;5075602;28;20845;-75
2022/10/08 07:41:23;;;;;;;25.33;17.17;;;14.90;99.90;;;;;;5076824;28;20574;-77
2022/10/08 07:43:51;;;;;;;14.00;11.50;;;14.90;99.90;;;;;;5075651;28;20463;-77
2022/10/08 07:46:19;;;;;;;11.00;7.17;;;15.00;99.90;;;;;;5077028;28;20538;-77
2022/10/08 07:48:47;;;;;;;26.60;22.00;;;15.00;99.90;;;;;;5075339;28;20489;-77
2022/10/08 07:51:15;;;;;;;21.13;14.93;;;15.00;99.90;;;;;;5075557;28;20301;-75
2022/10/08 07:53:48;;;;;;;15.60;11.30;;;15.00;99.90;;;;;;5075265;28;20543;-76
2022/10/08 07:56:19;;;;;;;28.20;19.17;;;15.10;99.90;;;;;;5075566;28;20509;-77
2022/10/08 07:58:48;;;;;;;9.40;6.30;;;15.10;99.90;;;;;;5075250;28;20466;-76
2022/10/08 08:01:18;;;;;;;10.27;8.17;;;15.20;99.90;;;;;;5075861;28;20478;-76
2022/10/08 08:03:52;;;;;;;12.00;7.57;;;15.20;99.90;;;;;;5075342;28;20505;-76
2022/10/08 08:06:19;;;;;;;9.23;6.20;;;15.30;99.90;;;;;;5076426;28;20468;-77
2022/10/08 08:08:47;;;;;;;9.20;7.20;;;15.30;99.90;;;;;;5074752;28;20549;-76
2022/10/08 08:11:16;;;;;;;11.53;6.53;;;15.40;99.90;;;;;;5077862;28;20465;-77
2022/10/08 08:13:47;;;;;;;9.90;6.80;;;15.50;99.90;;;;;;5066556;28;20874;-77
2022/10/08 08:16:19;;;;;;;10.47;8.67;;;15.50;99.90;;;;;;5077930;28;20468;-77
2022/10/08 08:18:47;;;;;;;7.97;5.90;;;15.60;99.90;;;;;;5082359;28;20477;-77
2022/10/08 08:21:16;;;;;;;6.00;4.57;;;15.60;99.90;;;;;;5084943;28;20492;-76
2022/10/08 08:23:46;;;;;;;9.57;5.50;;;15.60;99.90;;;;;;5082735;28;20466;-76
2022/10/08 08:26:15;;;;;;;12.20;4.57;;;15.70;99.90;;;;;;5086837;28;20462;-76
2022/10/08 08:28:43;;;;;;;7.67;6.40;;;15.80;99.90;;;;;;5088294;28;20466;-76
2022/10/08 08:31:12;;;;;;;6.27;3.83;;;15.80;99.90;;;;;;5087179;28;20532;-78
2022/10/08 08:33:41;;;;;;;7.23;3.23;;;15.90;99.90;;;;;;5086165;28;20467;-77
2022/10/08 08:36:09;;;;;;;12.03;4.90;;;15.90;99.90;;;;;;5083705;28;20459;-76
2022/10/08 08:38:37;;;;;;;7.93;4.47;;;15.90;99.90;;;;;;5089200;28;20470;-76
2022/10/08 08:41:19;;;;;;;9.03;4.37;;;16.00;99.90;;;;;;5089323;28;20472;-76
2022/10/08 08:43:46;;;;;;;6.90;4.90;;;16.00;99.90;;;;;;5089310;28;20459;-77
2022/10/08 08:46:17;;;;;;;6.80;4.90;;;16.10;99.90;;;;;;5077033;28;20470;-76
2022/10/08 08:48:46;;;;;;;8.90;6.57;;;16.10;99.90;;;;;;5087955;28;20475;-77
2022/10/08 08:51:13;;;;;;;12.00;10.13;;;16.20;99.90;;;;;;5086294;28;20454;-77
2022/10/08 08:53:41;;;;;;;19.60;12.90;;;16.20;99.90;;;;;;5083761;28;20474;-76
2022/10/08 08:56:10;;;;;;;25.70;18.30;;;16.30;99.90;;;;;;5078148;28;20471;-76
2022/10/08 08:58:41;;;;;;;22.83;17.10;;;16.40;99.90;;;;;;5075698;28;20497;-77
2022/10/08 09:01:22;;;;;;;16.40;12.97;;;16.40;99.90;;;;;;5069124;28;21477;-76
2022/10/08 09:03:52;;;;;;;13.27;9.17;;;16.50;99.90;;;;;;5081280;28;20458;-76
2022/10/08 09:06:24;;;;;;;13.53;8.90;;;16.50;99.90;;;;;;5081193;28;20462;-76
2022/10/08 09:08:56;;;;;;;21.93;12.90;;;16.50;99.90;;;;;;5083231;28;20474;-76
2022/10/08 09:11:24;;;;;;;15.93;11.80;;;16.60;99.90;;;;;;5081062;28;20458;-76
2022/10/08 09:13:56;;;;;;;15.67;11.87;;;16.60;99.90;;;;;;5078384;28;20474;-76
2022/10/08 09:16:24;;;;;;;11.63;9.30;;;16.70;99.90;;;;;;5064218;28;20924;-76
2022/10/08 09:18:55;;;;;;;16.17;8.20;;;16.70;99.90;;;;;;5074603;28;20481;-77
2022/10/08 09:21:24;;;;;;;9.10;5.90;;;16.70;99.90;;;;;;5075939;28;20874;-77
2022/10/08 09:23:51;;;;;;;7.53;6.23;;;16.80;99.90;;;;;;5077198;28;20637;-77
2022/10/08 09:26:21;;;;;;;8.47;7.00;;;16.90;99.90;;;;;;5075674;28;20459;-77
2022/10/08 09:28:49;;;;;;;21.23;11.27;;;16.90;99.90;;;;;;5077860;28;20496;-76
2022/10/08 09:31:30;;;;;;;19.13;12.80;;;17.00;99.90;;;;;;5075922;28;20513;-77
2022/10/08 09:34:06;;;;;;;11.13;8.00;;;17.10;99.90;;;;;;5075260;28;20466;-77
2022/10/08 09:36:38;;;;;;;8.50;5.60;;;17.20;99.90;;;;;;5073905;28;20458;-77
2022/10/08 09:39:14;;;;;;;9.40;6.00;;;17.20;99.90;;;;;;5074501;28;20585;-77
2022/10/08 09:41:42;;;;;;;8.70;5.80;;;17.30;99.90;;;;;;5073748;28;20456;-77
2022/10/08 09:44:15;;;;;;;8.30;7.30;;;17.30;99.90;;;;;;5069768;28;20471;-77
2022/10/08 09:46:43;;;;;;;16.63;9.53;;;17.30;99.90;;;;;;5078258;28;20460;-77
2022/10/08 09:49:31;;;;;;;11.90;7.70;;;17.40;99.90;;;;;;5080059;28;20601;-78
2022/10/08 09:52:01;;;;;;;8.87;7.07;;;17.50;99.90;;;;;;5075504;28;20493;-76
2022/10/08 09:54:31;;;;;;;15.57;11.57;;;17.50;99.90;;;;;;5066726;28;20806;-77
2022/10/08 09:57:03;;;;;;;11.43;9.30;;;17.50;99.90;;;;;;5074137;28;20861;-76
2022/10/08 09:59:34;;;;;;;18.07;13.73;;;17.60;99.90;;;;;;5078464;28;21016;-79
2022/10/08 10:02:01;;;;;;;20.87;14.67;;;17.60;99.90;;;;;;5078277;28;20814;-76
2022/10/08 10:04:36;;;;;;;19.77;14.70;;;17.60;99.90;;;;;;5068165;28;20941;-77
2022/10/08 10:07:07;;;;;;;12.53;8.73;;;17.60;99.90;;;;;;5077280;28;20818;-77
2022/10/08 10:09:43;;;;;;;7.43;6.63;;;17.60;99.90;;;;;;5076312;28;20580;-77
2022/10/08 10:12:21;;;;;;;16.10;12.60;;;17.70;99.90;;;;;;5076578;28;20480;-77
2022/10/08 10:14:53;;;;;;;11.10;5.80;;;17.70;99.90;;;;;;5077226;28;20460;-76
2022/10/08 10:17:29;;;;;;;11.10;6.17;;;17.80;99.90;;;;;;5072797;28;20500;-76
2022/10/08 10:20:03;;;;;;;18.50;13.13;;;17.80;99.90;;;;;;5073034;28;20461;-77
2022/10/08 10:22:38;;;;;;;11.13;7.00;;;17.80;99.90;;;;;;5079285;28;20469;-77
2022/10/08 10:25:13;;;;;;;5.90;4.50;;;17.90;99.90;;;;;;5076022;28;20999;-77
2022/10/08 10:27:45;;;;;;;10.30;5.70;;;17.90;99.90;;;;;;5078101;28;20497;-77
2022/10/08 10:30:19;;;;;;;4.93;4.03;;;17.90;99.90;;;;;;5076613;28;20475;-77
2022/10/08 10:32:51;;;;;;;7.70;5.00;;;17.90;99.90;;;;;;5079758;28;20477;-76
2022/10/08 10:35:24;;;;;;;5.23;4.73;;;17.90;99.90;;;;;;5074634;28;20965;-75
2022/10/08 10:37:57;;;;;;;8.30;5.17;;;17.90;99.90;;;;;;5075923;28;20473;-76
2022/10/08 10:40:35;;;;;;;20.57;9.40;;;17.90;99.90;;;;;;5075961;28;20480;-76
2022/10/08 10:43:33;;;;;;;13.23;11.63;;;17.90;99.90;;;;;;5069366;28;20529;-76
2022/10/08 10:46:16;;;;;;;14.27;9.00;;;17.90;99.90;;;;;;5065595;28;20459;-76
2022/10/08 10:48:44;;;;;;;19.90;12.37;;;17.80;99.90;;;;;;5077527;28;20624;-77
2022/10/08 10:51:28;;;;;;;14.53;9.47;;;17.70;99.90;;;;;;5075734;28;20859;-76
2022/10/08 10:54:05;;;;;;;13.10;11.60;;;17.70;99.90;;;;;;5071412;28;20483;-76
2022/10/08 10:56:41;;;;;;;8.17;7.37;;;17.70;99.90;;;;;;5073379;28;20555;-76
2022/10/08 10:59:20;;;;;;;7.83;6.53;;;17.70;99.90;;;;;;5063806;28;20940;-76
2022/10/08 11:01:53;;;;;;;7.70;4.90;;;17.70;99.90;;;;;;5063461;28;20464;-77
2022/10/08 11:04:27;;;;;;;11.50;7.70;;;17.70;99.90;;;;;;5066304;28;20512;-77
2022/10/08 11:07:04;;;;;;;10.40;6.53;;;17.70;99.90;;;;;;5068060;28;20953;-77
2022/10/08 11:09:50;;;;;;;9.67;5.63;;;17.60;99.90;;;;;;5023381;28;20503;-77
2022/10/08 11:12:29;;;;;;;14.23;10.90;;;17.60;99.90;;;;;;5049945;28;20487;-77
2022/10/08 11:15:09;;;;;;;16.47;10.90;;;17.50;99.90;;;;;;5046496;28;20526;-77
2022/10/08 11:20:50;;;;;;;9.40;6.30;;;17.50;99.90;;;;;;5024299;28;20477;-77
2022/10/08 11:23:35;;;;;;;6.47;5.70;;;17.50;99.90;;;;;;5032173;28;20852;-76
2022/10/08 11:26:10;;;;;;;7.93;5.30;;;17.40;99.90;;;;;;5054141;28;20555;-76
2022/10/08 11:28:55;;;;;;;4.67;3.60;;;17.40;99.90;;;;;;5055293;28;20466;-77
2022/10/08 11:31:36;;;;;;;8.60;4.30;;;17.40;99.90;;;;;;5052036;28;20979;-77
2022/10/08 11:34:04;;;;;;;10.60;4.90;;;17.40;99.90;;;;;;5046695;28;20834;-77
2022/10/08 11:36:39;;;;;;;6.70;4.70;;;17.40;99.90;;;;;;5049947;28;20554;-77
2022/10/08 11:39:19;;;;;;;7.83;4.83;;;17.40;99.90;;;;;;5036512;28;20564;-77
2022/10/08 11:41:59;;;;;;;8.80;5.20;;;17.40;99.90;;;;;;5049297;28;20484;-78
2022/10/08 11:44:29;;;;;;;17.60;10.33;;;17.30;99.90;;;;;;5054655;28;20467;-78
2022/10/08 11:47:35;;;;;;;7.93;5.60;;;17.30;99.90;;;;;;5058496;28;20470;-77
2022/10/08 11:50:06;;;;;;;10.80;5.10;;;17.20;99.90;;;;;;5056084;28;20465;-76
2022/10/08 11:52:34;;;;;;;8.97;7.03;;;17.20;99.90;;;;;;5056471;28;20503;-76
2022/10/08 11:55:04;;;;;;;9.70;6.00;;;17.10;99.90;;;;;;5035222;28;20665;-77
2022/10/08 11:57:38;;;;;;;9.00;6.30;;;17.10;99.90;;;;;;5049038;28;20508;-77
2022/10/08 12:00:24;;;;;;;6.87;4.27;;;17.10;99.90;;;;;;5026958;28;20557;-78
2022/10/08 12:02:54;;;;;;;13.97;9.30;;;17.10;99.90;;;;;;5056105;28;20478;-78
2022/10/08 12:05:35;;;;;;;6.83;4.90;;;17.10;99.90;;;;;;5055745;28;20770;-78
2022/10/08 12:08:05;;;;;;;10.90;5.57;;;17.10;99.90;;;;;;5045782;28;20499;-78
2022/10/08 12:10:35;;;;;;;10.87;7.90;;;17.10;99.90;;;;;;5055651;28;21006;-77
2022/10/08 12:13:26;;;;;;;15.23;11.53;;;17.00;99.90;;;;;;5057514;28;20730;-77
2022/10/08 12:16:07;;;;;;;8.20;6.90;;;17.00;99.90;;;;;;5056143;28;20473;-77
2022/10/08 12:18:52;;;;;;;11.50;5.77;;;16.90;99.90;;;;;;5054388;28;20459;-77
2022/10/08 12:21:47;;;;;;;7.57;5.10;;;17.00;99.90;;;;;;5054382;28;20476;-77
2022/10/08 12:24:59;;;;;;;8.77;5.00;;;16.90;99.90;;;;;;5045845;28;20471;-78
2022/10/08 12:27:31;;;;;;;9.67;5.70;;;16.90;99.90;;;;;;5054011;28;20857;-77
2022/10/08 12:30:00;;;;;;;6.13;5.07;;;16.90;99.90;;;;;;5054418;28;20875;-77
2022/10/08 12:32:29;;;;;;;7.67;4.67;;;17.00;99.90;;;;;;5074714;28;20467;-78
2022/10/08 12:34:57;;;;;;;11.80;8.10;;;17.00;99.90;;;;;;5075684;28;20461;-76
2022/10/08 12:37:53;;;;;;;8.53;6.87;;;17.00;99.90;;;;;;5074337;28;20978;-76
2022/10/08 12:40:34;;;;;;;7.23;5.67;;;17.10;99.90;;;;;;5074683;28;20561;-76
2022/10/08 12:43:18;;;;;;;9.47;4.40;;;17.10;99.90;;;;;;5074697;28;20476;-78
2022/10/08 12:45:55;;;;;;;5.10;4.30;;;17.10;99.90;;;;;;5064952;28;21017;-77
2022/10/08 12:48:32;;;;;;;6.07;4.90;;;17.10;99.90;;;;;;5074145;28;20553;-77
2022/10/08 12:51:18;;;;;;;5.23;4.73;;;17.10;99.90;;;;;;5074581;28;20467;-77
2022/10/08 12:53:46;;;;;;;5.50;4.97;;;17.10;99.90;;;;;;5074340;28;20524;-78
2022/10/08 12:56:23;;;;;;;6.10;4.63;;;17.10;99.90;;;;;;5074674;28;20470;-77
2022/10/08 12:58:52;;;;;;;6.10;3.20;;;17.10;99.90;;;;;;5075695;28;20464;-79
2022/10/08 13:01:22;;;;;;;4.13;3.73;;;17.20;99.90;;;;;;5075561;28;20532;-78
2022/10/08 13:04:07;;;;;;;3.70;3.47;;;17.20;99.90;;;;;;5076452;28;20534;-75
2022/10/08 13:06:36;;;;;;;6.57;3.57;;;17.20;99.90;;;;;;5075170;28;20525;-75
2022/10/08 13:09:18;;;;;;;3.67;3.37;;;17.20;99.90;;;;;;5074557;28;20512;-76
2022/10/08 13:11:46;;;;;;;4.70;3.00;;;17.30;99.90;;;;;;5075246;28;20560;-76
2022/10/08 13:14:50;;;;;;;6.00;3.23;;;17.30;99.90;;;;;;5076068;28;20796;-77
2022/10/08 13:17:28;;;;;;;3.60;3.07;;;17.20;99.90;;;;;;5062940;28;20466;-78
2022/10/08 13:20:07;;;;;;;3.20;2.90;;;17.20;99.90;;;;;;5052281;28;20520;-76